Time;durP1;ratioP1;P1;durP2;ratioP2;P2;SDS_P1;SDS_P2;PMS_P1;PMS_P2;Temp;Humidity;BMP_temperature;BMP_pressure;BME280_temperature;BME280_humidity;BME280_pressure;Samples;Min_cycle;Max_cycle;Signal;HPM_P1;HPM_P2
2022/09/24 00:00:50;;;;;;;4.80;1.17;;;;;;;18.38;72.20;101287.44;2099195;28;20055;-75
2022/09/24 00:02:12;;;;;;;1.50;1.10;;;;;;;18.38;72.30;101282.09;2088726;28;20048;-75
2022/09/24 00:03:35;;;;;;;2.58;1.10;;;;;;;18.39;72.12;101293.69;2094052;28;20529;-75
2022/09/24 00:04:58;;;;;;;2.05;1.10;;;;;;;18.40;72.34;101288.34;2096575;28;20037;-75
2022/09/24 00:06:21;;;;;;;2.63;1.45;;;;;;;18.42;72.18;101282.97;2096743;28;20105;-75
2022/09/24 00:07:44;;;;;;;5.65;1.30;;;;;;;18.43;71.99;101280.31;2096662;28;20037;-75
2022/09/24 00:09:06;;;;;;;3.58;1.30;;;;;;;18.43;71.98;101276.75;2096308;28;20508;-75
2022/09/24 00:10:30;;;;;;;4.15;1.35;;;;;;;18.41;72.23;101273.19;2088213;28;20048;-75
2022/09/24 00:11:53;;;;;;;4.43;1.20;;;;;;;18.38;72.61;101278.56;2102698;28;20044;-75
2022/09/24 00:13:17;;;;;;;3.38;1.13;;;;;;;18.36;72.75;101283.03;2099212;28;20044;-76
2022/09/24 00:14:40;;;;;;;4.95;1.80;;;;;;;18.32;72.96;101275.03;2096905;28;20132;-76
2022/09/24 00:16:05;;;;;;;2.92;1.13;;;;;;;18.27;73.27;101265.28;2096503;28;20052;-76
2022/09/24 00:17:28;;;;;;;2.95;1.00;;;;;;;18.22;73.21;101268.00;2088560;28;20132;-76
2022/09/24 00:18:49;;;;;;;3.75;1.00;;;;;;;18.20;72.97;101263.53;2085678;28;20114;-77
2022/09/24 00:20:12;;;;;;;3.17;1.10;;;;;;;18.21;72.30;101276.00;2093726;28;20135;-76
2022/09/24 00:21:36;;;;;;;2.85;1.20;;;;;;;18.21;71.91;101276.00;2096535;28;20037;-76
2022/09/24 00:22:57;;;;;;;4.47;1.10;;;;;;;18.21;71.61;101265.31;2099065;28;20040;-76
2022/09/24 00:27:41;;;;;;;3.95;1.45;;;;;;;18.20;71.22;101258.19;2098872;28;20522;-76
2022/09/24 00:29:03;;;;;;;2.83;0.93;;;;;;;18.22;71.09;101269.78;2088027;28;20560;-77
2022/09/24 00:30:25;;;;;;;2.40;1.10;;;;;;;18.24;71.00;101271.53;2093557;28;20048;-77
2022/09/24 00:31:48;;;;;;;3.67;1.20;;;;;;;18.27;70.71;101276.84;2096677;28;20090;-76
2022/09/24 00:33:10;;;;;;;2.10;1.10;;;;;;;18.29;71.13;101271.50;2079965;28;20075;-76
2022/09/24 00:34:33;;;;;;;2.80;0.95;;;;;;;18.31;70.91;101275.91;2099708;28;20047;-76
2022/09/24 00:35:59;;;;;;;4.63;1.83;;;;;;;18.33;70.84;101274.13;2090752;28;20462;-76
2022/09/24 00:37:22;;;;;;;2.78;1.30;;;;;;;18.37;71.22;101280.34;2086542;28;20045;-76
2022/09/24 00:38:43;;;;;;;1.98;1.20;;;;;;;18.38;71.21;101262.53;2093587;28;20039;-76
2022/09/24 00:40:08;;;;;;;2.70;1.15;;;;;;;18.40;71.18;101269.63;2096273;28;20060;-76
2022/09/24 00:41:35;;;;;;;3.67;1.00;;;;;;;18.42;71.32;101264.25;2096862;28;20072;-76
2022/09/24 00:42:56;;;;;;;2.10;1.15;;;;;;;18.42;70.96;101269.63;2088417;28;20045;-76
2022/09/24 00:44:52;;;;;;;3.42;0.90;;;;;;;18.37;70.84;101261.63;2085054;28;20349;-76
2022/09/24 00:46:19;;;;;;;1.65;1.13;;;;;;;18.33;70.98;101271.44;2098978;28;20103;-76
2022/09/24 00:47:44;;;;;;;2.78;0.90;;;;;;;18.33;70.80;101271.44;2096914;28;20040;-76
2022/09/24 00:49:12;;;;;;;3.15;0.95;;;;;;;18.35;70.64;101267.88;2096400;28;20109;-76
2022/09/24 00:50:36;;;;;;;4.32;1.13;;;;;;;18.34;70.81;101269.66;2080656;28;20037;-76
2022/09/24 00:51:57;;;;;;;3.72;0.90;;;;;;;18.34;70.70;101264.31;2091804;28;20254;-76
2022/09/24 00:53:27;;;;;;;2.15;1.08;;;;;;;18.33;70.26;101255.41;2096274;28;20063;-77
2022/09/24 00:54:49;;;;;;;2.25;1.00;;;;;;;18.35;70.37;101254.53;2097457;28;20036;-76
2022/09/24 00:56:15;;;;;;;5.78;1.30;;;;;;;18.35;70.03;101250.06;2087947;28;20140;-76
2022/09/24 00:57:41;;;;;;;3.03;1.15;;;;;;;18.36;70.09;101258.97;2094516;28;20048;-76
2022/09/24 00:59:05;;;;;;;2.97;1.02;;;;;;;18.33;70.36;101257.19;2096469;28;20496;-76
2022/09/24 01:00:28;;;;;;;1.33;0.88;;;;;;;18.32;70.46;101258.09;2096595;28;20457;-76
2022/09/24 01:01:52;;;;;;;1.77;1.00;;;;;;;18.32;70.53;101244.72;2096258;28;20040;-76
2022/09/24 01:03:19;;;;;;;2.45;1.20;;;;;;;18.31;70.31;101243.84;2096387;28;20157;-76
2022/09/24 01:04:42;;;;;;;3.13;1.20;;;;;;;18.31;70.18;101251.84;2088566;28;20362;-76
2022/09/24 01:06:06;;;;;;;2.75;1.05;;;;;;;18.29;70.46;101253.69;2077466;28;20057;-76
2022/09/24 01:07:27;;;;;;;1.92;1.00;;;;;;;18.28;70.57;101259.91;2093974;28;20048;-76
2022/09/24 01:08:50;;;;;;;1.98;1.20;;;;;;;18.25;70.65;101262.59;2095734;28;20040;-77
2022/09/24 01:10:12;;;;;;;1.63;1.10;;;;;;;18.23;70.97;101253.72;2104567;28;20472;-77
2022/09/24 01:11:45;;;;;;;2.67;0.93;;;;;;;18.21;71.21;101260.88;2090529;28;20607;-77
2022/09/24 01:13:27;;;;;;;1.73;1.10;;;;;;;18.21;71.34;101260.88;2089449;28;20520;-76
2022/09/24 01:15:06;;;;;;;2.85;0.80;;;;;;;18.22;71.44;101267.09;2098518;28;20135;-77
2022/09/24 01:16:34;;;;;;;5.13;1.05;;;;;;;18.25;71.07;101267.94;2098412;28;20093;-77
2022/09/24 01:18:05;;;;;;;3.10;0.80;;;;;;;18.28;70.73;101262.59;2096739;28;20114;-77
2022/09/24 01:19:54;;;;;;;1.73;0.90;;;;;;;18.31;70.54;101254.53;2096527;28;20048;-77
2022/09/24 01:21:27;;;;;;;4.88;1.05;;;;;;;18.34;70.75;101258.97;2098756;28;20064;-77
2022/09/24 01:23:08;;;;;;;5.13;1.10;;;;;;;18.33;70.86;101271.44;2097532;28;20048;-77
2022/09/24 01:24:52;;;;;;;3.83;1.17;;;;;;;18.32;70.95;101264.31;2098602;28;20076;-77
2022/09/24 01:26:35;;;;;;;1.92;1.20;;;;;;;18.32;70.89;101269.69;2098759;28;20089;-76
2022/09/24 01:28:12;;;;;;;3.67;1.30;;;;;;;18.36;70.91;101258.97;2092663;28;20093;-76
2022/09/24 01:29:43;;;;;;;4.28;1.23;;;;;;;18.35;71.41;101257.19;2097609;28;20044;-77
2022/09/24 01:31:12;;;;;;;1.92;1.33;;;;;;;18.30;71.63;101251.91;2088985;28;20143;-77
2022/09/24 01:32:39;;;;;;;4.82;1.50;;;;;;;18.26;72.04;101260.81;2095117;28;20033;-77
2022/09/24 01:34:06;;;;;;;2.92;1.20;;;;;;;18.24;72.34;101265.31;2098426;28;20390;-76
2022/09/24 01:35:33;;;;;;;1.75;1.10;;;;;;;18.21;72.68;101266.22;2096453;28;20056;-77
2022/09/24 01:36:57;;;;;;;2.83;1.30;;;;;;;18.17;72.60;101260.91;2104935;28;20218;-77
2022/09/24 01:38:26;;;;;;;5.53;1.30;;;;;;;18.17;72.60;101260.91;2098450;28;20044;-77
2022/09/24 01:39:50;;;;;;;2.45;1.00;;;;;;;18.19;72.29;101262.66;2096678;28;20048;-77
2022/09/24 01:41:16;;;;;;;4.55;1.10;;;;;;;18.22;71.89;101262.63;2095970;28;20044;-76
2022/09/24 01:42:42;;;;;;;2.08;0.98;;;;;;;18.25;71.86;101259.03;2088164;28;20591;-77
2022/09/24 01:44:06;;;;;;;3.63;1.40;;;;;;;18.25;71.50;101249.25;2094556;28;20046;-77
2022/09/24 01:45:32;;;;;;;3.22;1.02;;;;;;;18.26;71.30;101248.34;2096365;28;20429;-76
2022/09/24 01:46:55;;;;;;;4.00;1.02;;;;;;;18.27;70.51;101250.13;2104664;28;20044;-77
2022/09/24 01:48:20;;;;;;;3.45;1.35;;;;;;;18.31;70.33;101254.53;2098350;28;20076;-76
2022/09/24 01:49:42;;;;;;;3.10;1.13;;;;;;;18.31;69.93;101259.88;2104395;28;20354;-77
2022/09/24 01:51:10;;;;;;;4.47;1.10;;;;;;;18.32;69.76;101261.66;2090014;28;20088;-77
2022/09/24 01:52:38;;;;;;;6.10;1.30;;;;;;;18.32;69.52;101263.44;2103237;28;20039;-77
2022/09/24 01:54:06;;;;;;;6.30;1.50;;;;;;;18.33;69.57;101270.56;2098080;28;20045;-76
2022/09/24 01:55:34;;;;;;;2.97;1.23;;;;;;;18.31;69.46;101265.22;2096425;28;20155;-76
2022/09/24 01:57:01;;;;;;;3.28;1.40;;;;;;;18.28;69.24;101265.25;2096623;28;20475;-76
2022/09/24 01:58:29;;;;;;;4.32;1.45;;;;;;;18.31;69.13;101253.69;2088120;28;20045;-77
2022/09/24 01:59:56;;;;;;;3.22;1.48;;;;;;;18.32;69.20;101256.31;2102601;28;20252;-76
2022/09/24 02:01:26;;;;;;;3.80;1.23;;;;;;;18.33;69.25;101259.88;2098261;28;20059;-76
2022/09/24 02:02:56;;;;;;;3.38;1.15;;;;;;;18.33;69.30;101254.53;2096446;28;20139;-76
2022/09/24 02:04:19;;;;;;;3.83;1.38;;;;;;;18.33;69.19;101247.41;2098244;28;20457;-76
2022/09/24 02:05:48;;;;;;;4.40;1.48;;;;;;;18.34;69.20;101250.97;2095988;28;20041;-76
2022/09/24 02:07:18;;;;;;;3.47;1.23;;;;;;;18.36;68.94;101256.31;2088212;28;20075;-76
2022/09/24 02:08:43;;;;;;;5.82;1.40;;;;;;;18.37;69.14;101267.00;2095549;28;20040;-76
2022/09/24 02:10:07;;;;;;;4.00;1.35;;;;;;;18.38;69.17;101266.06;2096074;28;20071;-77
2022/09/24 02:11:34;;;;;;;4.47;1.20;;;;;;;18.41;69.13;101267.84;2087704;28;20053;-76
2022/09/24 02:13:00;;;;;;;3.53;1.40;;;;;;;18.40;69.01;101274.97;2086062;28;20048;-77
2022/09/24 02:14:24;;;;;;;4.93;1.13;;;;;;;18.40;68.81;101282.09;2087885;28;20057;-76
2022/09/24 02:15:53;;;;;;;5.53;1.40;;;;;;;18.41;68.36;101290.09;2095948;28;20036;-76
2022/09/24 02:17:18;;;;;;;7.97;2.15;;;;;;;18.42;68.36;101281.19;2096553;28;20059;-76
2022/09/24 02:18:46;;;;;;;4.32;1.17;;;;;;;18.40;68.27;101276.75;2095929;28;20322;-76
2022/09/24 02:20:14;;;;;;;4.28;1.25;;;;;;;18.38;68.28;101275.91;2095840;28;20110;-76
2022/09/24 02:21:40;;;;;;;3.22;1.00;;;;;;;18.37;67.98;101277.69;2096264;28;20036;-76
2022/09/24 02:23:04;;;;;;;3.33;1.20;;;;;;;18.38;67.70;101287.44;2096158;28;20139;-76
2022/09/24 02:24:32;;;;;;;6.07;1.75;;;;;;;18.38;67.64;101290.13;2095340;28;20048;-76
2022/09/24 02:26:01;;;;;;;7.30;1.58;;;;;;;18.39;67.28;101291.91;2096474;28;20147;-76
2022/09/24 02:27:26;;;;;;;5.40;1.85;;;;;;;18.39;67.14;101286.56;2088009;28;20452;-77
2022/09/24 02:28:49;;;;;;;6.50;1.60;;;;;;;18.40;66.87;101290.13;2102143;28;20446;-77
2022/09/24 02:30:11;;;;;;;3.92;1.27;;;;;;;18.39;66.46;101283.00;2098174;28;20126;-77
2022/09/24 02:31:39;;;;;;;10.48;1.88;;;;;;;18.37;66.59;101288.38;2095536;28;20041;-77
2022/09/24 02:34:19;;;;;;;7.03;2.17;;;;;;;18.36;66.47;101293.72;2087776;28;20130;-77
2022/09/24 02:34:52;;;;;;;5.63;1.52;;;;;;;18.32;66.69;101293.72;2097782;28;20044;-77
2022/09/24 02:36:13;;;;;;;3.33;1.35;;;;;;;18.30;66.53;101294.66;2096135;28;20484;-77
2022/09/24 02:37:38;;;;;;;4.32;1.30;;;;;;;18.30;66.22;101298.22;2087176;28;20037;-76
2022/09/24 02:38:59;;;;;;;5.82;1.40;;;;;;;18.28;66.26;101305.38;2093228;28;20135;-77
2022/09/24 02:40:22;;;;;;;3.70;1.25;;;;;;;18.29;65.93;101303.56;2094984;28;20138;-78
2022/09/24 02:41:46;;;;;;;3.53;1.10;;;;;;;18.29;65.88;101298.22;2095622;28;20041;-77
2022/09/24 02:43:09;;;;;;;4.78;1.40;;;;;;;18.28;65.65;101297.34;2104029;28;20151;-76
2022/09/24 02:44:30;;;;;;;4.88;1.52;;;;;;;18.30;65.59;101302.69;2097975;28;20040;-77
2022/09/24 02:45:53;;;;;;;3.95;1.48;;;;;;;18.30;65.29;101303.56;2095356;28;20369;-77
2022/09/24 02:47:14;;;;;;;3.13;1.27;;;;;;;18.32;65.41;101304.44;2095372;28;20123;-77
2022/09/24 02:48:39;;;;;;;4.38;1.25;;;;;;;18.35;65.09;101306.19;2086860;28;20073;-77
2022/09/24 02:50:00;;;;;;;4.15;1.60;;;;;;;18.36;65.21;101299.97;2095592;28;20050;-76
2022/09/24 02:51:23;;;;;;;7.35;1.80;;;;;;;18.35;65.38;101299.97;2087137;28;20080;-76
2022/09/24 02:52:45;;;;;;;4.35;1.52;;;;;;;18.33;65.34;101302.63;2095484;28;20056;-76
2022/09/24 02:54:07;;;;;;;10.43;2.03;;;;;;;18.31;65.69;101299.97;2095031;28;20080;-76
2022/09/24 02:55:32;;;;;;;3.03;1.20;;;;;;;18.32;65.76;101303.53;2095425;28;20037;-77
2022/09/24 02:56:53;;;;;;;7.68;1.92;;;;;;;18.32;65.80;101312.44;2095647;28;20052;-76
2022/09/24 02:58:16;;;;;;;4.82;1.30;;;;;;;18.33;65.90;101316.91;2103772;28;20044;-76
2022/09/24 02:59:39;;;;;;;5.75;1.67;;;;;;;18.37;66.02;101323.13;2089641;28;20049;-77
2022/09/24 03:01:00;;;;;;;5.05;1.40;;;;;;;18.40;66.02;101315.06;2092866;28;20071;-76
2022/09/24 03:02:23;;;;;;;3.53;1.38;;;;;;;18.43;66.10;101319.50;2103606;28;20105;-76
2022/09/24 03:03:47;;;;;;;3.10;1.50;;;;;;;18.43;65.89;101319.50;2097751;28;20518;-77
2022/09/24 03:05:11;;;;;;;5.55;1.55;;;;;;;18.41;66.03;101321.31;2095434;28;20144;-76
2022/09/24 03:06:32;;;;;;;5.53;1.52;;;;;;;18.38;65.88;101326.69;2098037;28;20070;-77
2022/09/24 03:07:57;;;;;;;5.10;1.42;;;;;;;18.36;65.93;101326.69;2095211;28;20143;-77
2022/09/24 03:09:18;;;;;;;4.28;1.20;;;;;;;18.34;65.80;101317.78;2097849;28;20037;-77
2022/09/24 03:10:41;;;;;;;6.13;1.40;;;;;;;18.33;65.72;101314.22;2095324;28;20071;-77
2022/09/24 03:12:04;;;;;;;4.50;1.25;;;;;;;18.33;65.23;101308.88;2087002;28;20132;-77
2022/09/24 03:13:25;;;;;;;2.95;1.27;;;;;;;18.31;64.96;101310.66;2092933;28;20060;-77
2022/09/24 03:14:48;;;;;;;3.00;1.23;;;;;;;18.32;64.77;101315.13;2086841;28;20523;-77
2022/09/24 03:16:09;;;;;;;4.78;1.30;;;;;;;18.32;64.40;101317.78;2092786;28;20062;-76
2022/09/24 03:17:32;;;;;;;5.07;1.10;;;;;;;18.30;64.13;101316.94;2086910;28;20029;-76
2022/09/24 03:18:55;;;;;;;5.85;1.60;;;;;;;18.28;64.04;101317.84;2092478;28;20044;-77
2022/09/24 03:20:17;;;;;;;4.45;1.33;;;;;;;18.26;64.00;101328.53;2103265;28;20055;-76
2022/09/24 03:21:39;;;;;;;5.43;1.17;;;;;;;18.26;63.95;101330.31;2089689;28;20136;-76
2022/09/24 03:23:02;;;;;;;4.25;1.25;;;;;;;18.25;63.92;101334.75;2092441;28;20048;-77
2022/09/24 03:24:25;;;;;;;2.88;1.25;;;;;;;18.24;64.05;101335.69;2095294;28;20543;-76
2022/09/24 03:25:46;;;;;;;3.80;1.25;;;;;;;18.24;64.07;101338.38;2095350;28;20045;-78
2022/09/24 03:27:10;;;;;;;3.35;1.48;;;;;;;18.22;64.35;101348.16;2095198;28;20050;-77
2022/09/24 03:28:31;;;;;;;5.80;1.20;;;;;;;18.21;64.18;101346.38;2087372;28;20041;-77
2022/09/24 03:31:34;;;;;;;4.45;1.30;;;;;;;18.23;64.31;101346.38;2089565;28;20132;-75
2022/09/24 03:32:55;;;;;;;3.35;1.40;;;;;;;18.22;64.23;101353.50;2092732;28;20071;-76
2022/09/24 03:34:19;;;;;;;2.92;1.30;;;;;;;18.22;63.93;101348.16;2086982;28;20041;-76
2022/09/24 03:35:41;;;;;;;3.40;1.30;;;;;;;18.22;63.92;101353.50;2092897;28;20484;-76
2022/09/24 03:37:04;;;;;;;2.85;1.13;;;;;;;18.21;63.63;101349.06;2086910;28;20534;-76
2022/09/24 03:38:28;;;;;;;8.32;1.58;;;;;;;18.20;63.70;101355.31;2095159;28;20153;-76
2022/09/24 03:39:50;;;;;;;2.15;1.20;;;;;;;18.18;63.86;101357.09;2089502;28;20099;-76
2022/09/24 03:41:13;;;;;;;3.17;1.27;;;;;;;18.18;63.73;101351.75;2101161;28;20472;-76
2022/09/24 03:42:35;;;;;;;4.63;1.30;;;;;;;18.18;63.80;101357.09;2097857;28;20101;-76
2022/09/24 03:43:58;;;;;;;8.70;1.77;;;;;;;18.18;63.71;101356.22;2094979;28;20090;-77
2022/09/24 03:45:20;;;;;;;4.35;1.35;;;;;;;18.17;63.79;101354.44;2095150;28;20040;-76
2022/09/24 03:46:43;;;;;;;4.47;1.17;;;;;;;18.19;63.59;101360.66;2086859;28;20515;-76
2022/09/24 03:48:05;;;;;;;3.88;1.33;;;;;;;18.17;63.70;101359.78;2092798;28;20051;-76
2022/09/24 03:49:29;;;;;;;;;;;;;;;18.12;63.70;101351.78;2095500;28;20051;-76
2022/09/24 03:50:50;;;;;;;8.70;1.45;;;;;;;18.12;63.99;101364.25;2103605;28;20318;-76
2022/09/24 03:52:13;;;;;;;3.75;1.45;;;;;;;18.13;63.97;101358.00;2097801;28;20377;-76
2022/09/24 03:53:36;;;;;;;3.92;1.60;;;;;;;18.11;63.74;101360.72;2086782;28;20047;-77
2022/09/24 03:54:57;;;;;;;4.68;1.00;;;;;;;18.11;63.76;101362.50;2092488;28;20083;-76
2022/09/24 03:56:20;;;;;;;5.50;1.65;;;;;;;18.09;63.63;101358.94;2095051;28;20044;-77
2022/09/24 03:57:41;;;;;;;5.45;1.40;;;;;;;18.07;63.72;101360.72;2089470;28;20399;-76
2022/09/24 03:59:04;;;;;;;2.25;1.20;;;;;;;18.05;63.60;101362.53;2100319;28;20075;-76
2022/09/24 04:00:26;;;;;;;7.03;1.25;;;;;;;18.03;63.52;101364.31;2097608;28;20052;-76
2022/09/24 04:01:49;;;;;;;5.18;1.50;;;;;;;18.04;63.36;101368.78;2095265;28;20074;-76
2022/09/24 04:03:12;;;;;;;6.03;1.55;;;;;;;18.04;63.38;101371.44;2095236;28;20506;-76
2022/09/24 04:04:36;;;;;;;5.25;1.15;;;;;;;18.03;63.30;101362.53;2095121;28;20527;-77
2022/09/24 04:05:59;;;;;;;3.40;1.20;;;;;;;18.01;63.29;101367.00;2096701;28;20060;-77
2022/09/24 04:07:20;;;;;;;5.55;1.60;;;;;;;18.01;63.38;101374.13;2096700;28;20078;-77
2022/09/24 04:08:43;;;;;;;3.58;1.08;;;;;;;17.97;63.33;101373.25;2096562;28;20044;-77
2022/09/24 04:10:07;;;;;;;2.78;1.50;;;;;;;17.97;63.20;101378.59;2104923;28;20044;-76
2022/09/24 04:11:33;;;;;;;6.55;1.45;;;;;;;17.95;62.99;101375.03;2090898;28;20518;-77
2022/09/24 04:12:55;;;;;;;4.25;1.40;;;;;;;17.95;62.97;101376.81;2086754;28;20052;-77
2022/09/24 04:14:18;;;;;;;3.05;1.40;;;;;;;17.95;62.92;101375.03;2102130;28;20139;-77
2022/09/24 04:15:39;;;;;;;3.00;1.23;;;;;;;17.93;62.66;101380.38;2099147;28;20044;-77
2022/09/24 04:17:02;;;;;;;5.28;1.30;;;;;;;17.92;62.55;101370.59;2088130;28;20045;-77
2022/09/24 04:18:25;;;;;;;4.10;1.20;;;;;;;17.92;62.58;101386.63;2093965;28;20044;-77
2022/09/24 04:19:50;;;;;;;4.72;1.38;;;;;;;17.94;62.50;101381.28;2088021;28;20037;-77
2022/09/24 04:21:13;;;;;;;3.33;1.30;;;;;;;17.92;62.63;101391.97;2102819;28;20525;-77
2022/09/24 04:22:36;;;;;;;4.07;1.40;;;;;;;17.92;62.70;101389.28;2099240;28;20060;-76
2022/09/24 04:23:57;;;;;;;8.38;1.40;;;;;;;17.93;62.57;101392.84;2096307;28;20044;-76
2022/09/24 04:25:23;;;;;;;3.80;1.02;;;;;;;17.93;62.50;101395.53;2096460;28;20052;-76
2022/09/24 04:26:45;;;;;;;6.20;1.23;;;;;;;17.94;62.35;101399.97;2096811;28;20435;-76
2022/09/24 04:28:08;;;;;;;6.38;1.38;;;;;;;17.96;62.19;101403.53;2088315;28;20117;-76
2022/09/24 04:29:30;;;;;;;2.97;1.27;;;;;;;17.97;62.08;101397.31;2102311;28;20059;-77
2022/09/24 04:30:53;;;;;;;4.85;1.50;;;;;;;17.98;62.13;101401.75;2098910;28;20055;-76
2022/09/24 04:32:16;;;;;;;3.05;1.10;;;;;;;18.01;62.25;101404.41;2096688;28;20042;-77
2022/09/24 04:33:39;;;;;;;3.00;1.30;;;;;;;18.07;62.44;101411.50;2088242;28;20049;-77
2022/09/24 04:35:02;;;;;;;4.80;1.20;;;;;;;18.13;62.37;101412.34;2093858;28;20067;-76
2022/09/24 04:36:25;;;;;;;3.75;1.30;;;;;;;18.21;62.65;101415.88;2096449;28;20048;-76
2022/09/24 04:37:47;;;;;;;4.60;1.15;;;;;;;18.33;62.78;101420.25;2088337;28;20090;-76
2022/09/24 04:39:11;;;;;;;6.65;1.20;;;;;;;18.40;62.52;101422.00;2093543;28;20044;-77
2022/09/24 04:40:34;;;;;;;4.57;0.93;;;;;;;18.51;62.73;101428.16;2104908;28;20177;-77
2022/09/24 04:41:55;;;;;;;3.90;0.90;;;;;;;18.61;62.56;101427.25;2082313;28;20045;-78
2022/09/24 04:43:18;;;;;;;2.83;1.17;;;;;;;18.70;62.51;101431.69;2099121;28;20040;-76
2022/09/24 04:44:41;;;;;;;4.35;1.40;;;;;;;18.75;62.18;101428.97;2099131;28;20076;-77
2022/09/24 04:46:04;;;;;;;4.10;1.10;;;;;;;18.78;61.84;101429.81;2096392;28;20046;-77
2022/09/24 04:47:25;;;;;;;6.72;1.30;;;;;;;18.83;61.71;101437.81;2096347;28;20078;-77
2022/09/24 04:48:49;;;;;;;3.17;1.10;;;;;;;18.84;61.61;101434.25;2096117;28;20442;-76
2022/09/24 04:50:12;;;;;;;4.40;1.20;;;;;;;18.81;61.61;101435.16;2096205;28;20049;-77
2022/09/24 04:51:36;;;;;;;2.42;0.85;;;;;;;18.80;61.77;101432.47;2088208;28;20037;-77
2022/09/24 04:52:58;;;;;;;3.17;1.20;;;;;;;18.80;61.62;101432.47;2096443;28;20140;-77
2022/09/24 04:54:22;;;;;;;4.00;1.08;;;;;;;18.81;61.62;101448.53;2088177;28;20091;-77
2022/09/24 04:55:46;;;;;;;3.15;1.15;;;;;;;18.78;61.68;101445.84;2093868;28;20041;-76
2022/09/24 04:57:08;;;;;;;4.22;1.10;;;;;;;18.78;61.49;101436.94;2096510;28;20051;-75
2022/09/24 04:58:30;;;;;;;6.30;1.20;;;;;;;18.79;61.54;101449.44;2096363;28;20052;-76
2022/09/24 04:59:53;;;;;;;5.65;1.20;;;;;;;18.75;61.62;101445.91;2096215;28;20047;-77
2022/09/24 05:01:15;;;;;;;1.73;0.90;;;;;;;18.74;61.85;101448.56;2096350;28;20489;-76
2022/09/24 05:02:37;;;;;;;4.63;1.05;;;;;;;18.70;61.62;101445.94;2090753;28;20131;-77
2022/09/24 05:04:00;;;;;;;5.97;1.27;;;;;;;18.70;61.79;101447.72;2101689;28;20048;-76
2022/09/24 05:05:23;;;;;;;8.38;1.50;;;;;;;18.73;61.53;101452.16;2098758;28;20040;-76
2022/09/24 05:06:46;;;;;;;8.75;1.25;;;;;;;18.74;61.66;101452.13;2087885;28;20132;-76
2022/09/24 05:08:08;;;;;;;3.97;1.50;;;;;;;18.77;61.45;101449.47;2102160;28;20487;-76
2022/09/24 05:09:30;;;;;;;5.53;1.00;;;;;;;18.84;61.42;101455.66;2098435;28;20128;-77
2022/09/24 05:10:53;;;;;;;;;;;;;;;18.90;61.23;101455.59;2088448;28;20041;-77
2022/09/24 05:12:17;;;;;;;3.97;1.10;;;;;;;18.98;61.01;101451.94;2093553;28;19952;-77
2022/09/24 05:13:39;;;;;;;6.85;1.52;;;;;;;19.05;61.01;101453.69;2079745;28;20069;-77
2022/09/24 05:15:02;;;;;;;5.80;1.33;;;;;;;19.11;60.91;101452.75;2091083;28;20044;-76
2022/09/24 05:16:25;;;;;;;4.90;1.20;;;;;;;19.26;61.12;101457.06;2095197;28;20385;-77
2022/09/24 05:17:48;;;;;;;4.85;1.48;;;;;;;19.36;60.77;101456.13;2104459;28;20044;-77
2022/09/24 05:19:10;;;;;;;5.65;1.77;;;;;;;19.36;60.30;101454.28;2082041;28;20045;-76
2022/09/24 05:20:35;;;;;;;3.28;1.67;;;;;;;19.37;60.27;101463.22;2090629;28;20135;-77
2022/09/24 05:21:58;;;;;;;4.47;1.10;;;;;;;19.37;60.24;101457.88;2096133;28;20052;-76
2022/09/24 05:23:21;;;;;;;2.35;0.98;;;;;;;19.34;60.38;101458.78;2096056;28;20082;-76
2022/09/24 05:24:42;;;;;;;2.85;2.08;;;;;;;19.32;60.27;101457.03;2096255;28;20048;-77
2022/09/24 05:27:45;;;;;;;1.65;0.90;;;;;;;19.29;60.04;101452.59;2098292;28;20072;-77
2022/09/24 05:29:06;;;;;;;3.70;1.05;;;;;;;19.27;59.41;101459.75;2104392;28;20059;-76
2022/09/24 05:30:29;;;;;;;9.82;1.50;;;;;;;19.28;59.20;101464.22;2090323;28;20037;-77
2022/09/24 05:31:50;;;;;;;3.67;1.00;;;;;;;19.28;58.99;101461.53;2096067;28;20068;-77
2022/09/24 05:33:14;;;;;;;2.45;1.05;;;;;;;19.29;59.07;101459.75;2095979;28;20082;-76
2022/09/24 05:34:36;;;;;;;4.38;1.08;;;;;;;19.32;59.06;101465.06;2096043;28;20509;-77
2022/09/24 05:36:01;;;;;;;2.92;1.40;;;;;;;19.30;58.94;101472.22;2098736;28;20056;-77
2022/09/24 05:37:24;;;;;;;4.32;1.23;;;;;;;19.30;59.17;101475.78;2104375;28;20054;-76
2022/09/24 05:38:45;;;;;;;3.90;1.20;;;;;;;19.31;59.30;101468.63;2090200;28;20045;-76
2022/09/24 05:41:57;;;;;;;3.47;1.13;;;;;;;19.37;59.09;101471.25;2065364;28;20536;-77
2022/09/24 05:43:18;;;;;;;4.75;1.38;;;;;;;19.58;58.97;101468.41;2095865;28;20083;-77
2022/09/24 05:44:42;;;;;;;3.22;1.05;;;;;;;19.85;58.91;101477.94;2104024;28;20431;-76
2022/09/24 05:46:05;;;;;;;3.00;1.10;;;;;;;19.96;57.95;101470.66;2098355;28;20040;-77
2022/09/24 05:47:27;;;;;;;2.38;0.90;;;;;;;19.94;57.17;101476.97;2096051;28;20047;-77
2022/09/24 05:48:50;;;;;;;2.90;0.88;;;;;;;19.89;56.93;101480.56;2104116;28;20122;-77
2022/09/24 05:50:11;;;;;;;3.08;0.93;;;;;;;19.85;56.23;101480.63;2098425;28;20048;-77
2022/09/24 05:51:35;;;;;;;2.35;0.88;;;;;;;19.82;56.36;101480.69;2104039;28;20059;-77
2022/09/24 05:52:59;;;;;;;2.13;0.98;;;;;;;19.78;56.19;101478.91;2090025;28;20087;-77
2022/09/24 05:54:21;;;;;;;2.90;1.40;;;;;;;19.73;55.97;101481.66;2095756;28;20048;-77
2022/09/24 05:55:44;;;;;;;4.40;1.25;;;;;;;19.77;56.08;101480.72;2087517;28;20044;-77
2022/09/24 05:57:07;;;;;;;4.55;0.80;;;;;;;20.02;56.24;101489.34;2101611;28;20051;-77
2022/09/24 05:58:28;;;;;;;4.32;1.20;;;;;;;20.43;56.24;101488.88;2098437;28;20044;-78
2022/09/24 05:59:52;;;;;;;3.03;0.77;;;;;;;20.80;55.34;101485.72;2095529;28;20135;-77
2022/09/24 06:01:15;;;;;;;1.92;0.90;;;;;;;21.04;54.35;101488.88;2098235;28;20040;-77
2022/09/24 06:02:36;;;;;;;4.22;1.35;;;;;;;21.19;54.39;101493.16;2095886;28;20052;-77
2022/09/24 06:03:59;;;;;;;1.63;0.75;;;;;;;21.40;54.19;101492.78;2095531;28;20036;-77
2022/09/24 06:05:20;;;;;;;4.93;0.90;;;;;;;21.67;54.00;101487.84;2103958;28;20067;-78
2022/09/24 06:06:45;;;;;;;3.08;0.85;;;;;;;21.74;53.77;101487.69;2098302;28;20052;-77
2022/09/24 06:08:07;;;;;;;3.10;1.00;;;;;;;21.67;53.72;101487.84;2095957;28;20374;-77
2022/09/24 06:09:30;;;;;;;1.65;0.93;;;;;;;21.50;53.25;101498.00;2087629;28;20052;-78
2022/09/24 06:10:53;;;;;;;4.75;1.10;;;;;;;21.29;53.53;101489.41;2093236;28;20098;-77
2022/09/24 06:12:16;;;;;;;1.70;0.55;;;;;;;21.34;53.74;101489.31;2087565;28;20476;-77
2022/09/24 06:13:39;;;;;;;3.80;0.80;;;;;;;21.36;53.42;101490.19;2101458;28;20522;-77
2022/09/24 06:15:01;;;;;;;3.63;0.90;;;;;;;21.27;52.98;101488.53;2098249;28;20544;-77
2022/09/24 06:16:23;;;;;;;3.30;1.55;;;;;;;21.37;52.66;101498.22;2095530;28;20071;-77
2022/09/24 06:17:46;;;;;;;3.42;1.23;;;;;;;21.50;52.95;101504.28;2095485;28;20036;-77
2022/09/24 06:19:08;;;;;;;4.97;0.80;;;;;;;21.54;52.69;101507.78;2098132;28;20048;-76
2022/09/24 06:20:33;;;;;;;2.60;0.95;;;;;;;21.50;52.88;101514.13;2095134;28;20089;-77
2022/09/24 06:21:58;;;;;;;2.38;1.20;;;;;;;21.40;53.08;101510.69;2095771;28;20052;-76
2022/09/24 06:23:21;;;;;;;2.25;1.05;;;;;;;21.26;53.11;101515.44;2095669;28;20040;-77
2022/09/24 06:24:44;;;;;;;4.45;0.80;;;;;;;21.19;53.07;101524.50;2095347;28;20048;-77
2022/09/24 06:26:09;;;;;;;2.72;1.00;;;;;;;21.16;53.06;101522.75;2095522;28;20162;-77
2022/09/24 06:27:33;;;;;;;4.80;1.10;;;;;;;21.40;52.94;101522.34;2095776;28;20542;-77
2022/09/24 06:28:56;;;;;;;3.72;1.00;;;;;;;21.81;52.67;101526.09;2095549;28;20081;-77
2022/09/24 06:30:17;;;;;;;3.05;0.57;;;;;;;22.19;51.65;101525.41;2095509;28;20048;-77
2022/09/24 06:31:40;;;;;;;4.43;0.93;;;;;;;22.56;51.20;101529.13;2087136;28;20428;-77
2022/09/24 06:33:04;;;;;;;2.80;0.80;;;;;;;22.88;50.58;101523.06;2084663;28;20049;-76
2022/09/24 06:34:26;;;;;;;1.40;0.63;;;;;;;22.93;49.70;101523.81;2095466;28;20040;-77
2022/09/24 06:35:49;;;;;;;2.53;0.80;;;;;;;22.74;49.97;101529.66;2089605;28;20448;-74
2022/09/24 06:37:14;;;;;;;1.83;0.60;;;;;;;22.51;50.50;101535.53;2095301;28;20110;-75
2022/09/24 06:38:38;;;;;;;6.75;0.90;;;;;;;22.31;50.62;101541.31;2103824;28;20408;-75
2022/09/24 06:39:59;;;;;;;1.13;0.65;;;;;;;22.11;50.68;101539.03;2098126;28;20131;-76
2022/09/24 06:41:22;;;;;;;2.45;0.88;;;;;;;21.96;50.64;101538.41;2095341;28;20052;-76